Time;durP1;ratioP1;P1;durP2;ratioP2;P2;SDS_P1;SDS_P2;PMS_P1;PMS_P2;Temp;Humidity;BMP_temperature;BMP_pressure;BME280_temperature;BME280_humidity;BME280_pressure;Samples;Min_cycle;Max_cycle;Signal;HPM_P1;HPM_P2
2022/04/25 00:02:14;;;;;;;18.77;6.65;;;;;;;9.92;71.91;101122.34;5026599;28;20108;-60
2022/04/25 00:04:40;;;;;;;14.75;6.88;;;;;;;9.72;72.55;101117.59;5026989;28;20162;-62
2022/04/25 00:07:05;;;;;;;11.52;6.10;;;;;;;9.82;72.12;101118.25;5024624;28;20076;-59
2022/04/25 00:09:30;;;;;;;12.52;6.13;;;;;;;9.72;72.27;101123.72;5025752;28;20025;-60
2022/04/25 00:11:56;;;;;;;12.10;7.18;;;;;;;9.75;72.25;101121.94;5026012;28;20026;-60
2022/04/25 00:14:21;;;;;;;14.77;6.70;;;;;;;9.69;72.17;101118.53;5025947;28;20037;-61
2022/04/25 00:16:46;;;;;;;12.75;6.78;;;;;;;9.68;72.43;101121.22;5026504;28;20040;-61
2022/04/25 00:19:12;;;;;;;16.90;6.43;;;;;;;9.66;72.31;101123.88;5026813;28;20052;-62
2022/04/25 00:21:37;;;;;;;13.65;6.82;;;;;;;9.45;73.30;101117.41;5024633;28;20147;-61
2022/04/25 00:24:03;;;;;;;12.88;6.18;;;;;;;9.55;72.62;101115.41;5026659;28;20072;-61
2022/04/25 00:26:28;;;;;;;14.68;6.43;;;;;;;9.47;72.78;101123.50;5025419;28;20037;-60
2022/04/25 00:28:53;;;;;;;14.93;6.70;;;;;;;9.51;72.71;101119.03;5026635;28;20029;-62
2022/04/25 00:31:18;;;;;;;10.73;6.20;;;;;;;9.48;72.79;101119.94;5026036;28;20060;-61
2022/04/25 00:33:44;;;;;;;9.93;6.63;;;;;;;9.49;72.62;101113.81;5023913;28;20034;-60
2022/04/25 00:36:09;;;;;;;8.85;6.90;;;;;;;9.48;72.51;101114.69;5025697;28;20148;-61
2022/04/25 00:38:35;;;;;;;14.25;7.45;;;;;;;9.44;72.91;101119.19;5024863;28;20025;-60
2022/04/25 00:41:00;;;;;;;15.55;7.95;;;;;;;9.42;72.91;101120.13;5027226;28;20387;-61
2022/04/25 00:43:26;;;;;;;18.38;7.18;;;;;;;9.31;73.38;101117.75;5032186;28;20022;-61
2022/04/25 00:45:51;;;;;;;10.73;7.05;;;;;;;9.33;73.20;101108.91;5032597;28;20088;-61
2022/04/25 00:48:16;;;;;;;15.80;6.70;;;;;;;9.38;73.15;101108.81;5032514;28;20507;-61
2022/04/25 00:50:42;;;;;;;12.70;6.70;;;;;;;9.30;73.51;101122.13;5032767;28;20104;-60
2022/04/25 00:53:08;;;;;;;14.38;7.13;;;;;;;9.39;73.11;101113.16;5032101;28;20033;-60
2022/04/25 00:55:33;;;;;;;12.40;7.65;;;;;;;9.39;72.87;101114.94;5032679;28;20673;-61
2022/04/25 00:57:59;;;;;;;14.57;7.75;;;;;;;9.26;73.60;101114.34;5032288;28;20025;-61
2022/04/25 01:00:24;;;;;;;18.58;7.82;;;;;;;9.31;73.55;101115.13;5030238;28;20065;-61
2022/04/25 01:02:50;;;;;;;11.70;7.28;;;;;;;9.19;73.80;101109.25;5033482;28;20056;-61
2022/04/25 01:05:15;;;;;;;13.70;7.97;;;;;;;9.19;73.59;101113.66;5032776;28;20033;-61
2022/04/25 01:07:41;;;;;;;15.38;8.18;;;;;;;9.26;73.51;101114.34;5030945;28;20506;-61
2022/04/25 01:10:08;;;;;;;13.60;8.10;;;;;;;9.25;73.68;101105.63;5033029;28;20507;-61
2022/04/25 01:12:33;;;;;;;13.05;7.40;;;;;;;9.22;73.58;101108.31;5031515;28;20038;-62
2022/04/25 01:15:00;;;;;;;18.88;7.53;;;;;;;9.19;73.76;101108.38;5031826;28;20549;-62
2022/04/25 01:17:26;;;;;;;10.95;7.22;;;;;;;9.13;74.10;101108.53;5030413;28;20095;-61
2022/04/25 01:19:52;;;;;;;25.38;9.23;;;;;;;9.19;74.11;101105.75;5020424;28;20021;-60
2022/04/25 01:22:19;;;;;;;12.05;7.00;;;;;;;9.30;73.71;101111.59;5011561;28;20491;-60
2022/04/25 01:27:28;;;;;;;16.35;8.20;;;;;;;9.51;72.89;101103.25;5031917;28;20044;-61
2022/04/25 01:29:54;;;;;;;18.50;8.38;;;;;;;9.48;73.04;101105.03;5031298;28;20049;-60
2022/04/25 01:32:21;;;;;;;14.23;7.10;;;;;;;9.46;73.07;101095.47;5032398;28;20131;-60
2022/04/25 01:34:47;;;;;;;17.60;7.65;;;;;;;9.52;72.50;101095.31;5033041;28;20041;-61
2022/04/25 01:37:15;;;;;;;16.67;7.32;;;;;;;9.44;72.67;101092.88;5031775;28;20013;-61
2022/04/25 01:39:48;;;;;;;15.00;6.85;;;;;;;9.54;72.41;101092.66;5030741;28;20679;-61
2022/04/25 01:42:14;;;;;;;16.60;7.90;;;;;;;9.53;72.37;101083.88;5031933;28;20041;-62
2022/04/25 01:44:40;;;;;;;12.63;7.53;;;;;;;9.56;72.05;101090.81;5030707;28;20033;-61
2022/04/25 01:47:06;;;;;;;10.15;6.85;;;;;;;9.50;72.17;101090.97;5031420;28;20040;-61
2022/04/25 01:49:32;;;;;;;11.85;6.88;;;;;;;9.43;72.21;101092.91;5032269;28;20044;-61
2022/04/25 01:52:01;;;;;;;12.82;7.57;;;;;;;9.41;72.72;101095.56;5031948;28;20033;-62
2022/04/25 01:54:26;;;;;;;16.65;8.40;;;;;;;9.36;73.29;101094.81;5027593;28;20021;-62
2022/04/25 01:56:53;;;;;;;18.60;8.25;;;;;;;9.37;73.31;101100.94;5029560;28;20072;-61
2022/04/25 01:59:19;;;;;;;12.50;7.40;;;;;;;9.45;73.13;101093.75;5028153;28;20476;-61
2022/04/25 02:01:44;;;;;;;13.38;7.63;;;;;;;9.46;73.20;101095.47;5027105;28;20121;-62
2022/04/25 02:04:09;;;;;;;15.13;7.28;;;;;;;9.58;72.83;101091.66;5029416;28;20029;-60
2022/04/25 02:06:35;;;;;;;13.32;8.18;;;;;;;9.53;72.99;101102.28;5028001;28;20029;-59
2022/04/25 02:09:00;;;;;;;12.63;7.57;;;;;;;9.49;73.12;101100.66;5027886;28;20368;-62
2022/04/25 02:11:26;;;;;;;12.90;7.45;;;;;;;9.59;72.91;101096.88;5027010;28;20022;-62
2022/04/25 02:13:52;;;;;;;11.77;6.78;;;;;;;9.59;72.83;101096.88;5027357;28;20045;-60
2022/04/25 02:16:18;;;;;;;14.98;7.57;;;;;;;9.57;72.77;101098.69;5027628;28;20045;-61
2022/04/25 02:18:44;;;;;;;15.63;7.05;;;;;;;9.64;72.50;101095.91;5027935;28;20034;-60
2022/04/25 02:21:09;;;;;;;17.35;7.22;;;;;;;9.55;73.31;101089.97;5029045;28;20025;-61
2022/04/25 02:23:34;;;;;;;12.48;7.70;;;;;;;9.52;73.62;101091.81;5027419;28;20612;-60
2022/04/25 02:26:00;;;;;;;18.95;7.78;;;;;;;9.61;73.12;101088.94;5027104;28;20105;-60
2022/04/25 02:28:27;;;;;;;14.52;7.38;;;;;;;9.72;72.78;101093.91;5028660;28;20033;-60
2022/04/25 02:30:52;;;;;;;14.00;7.40;;;;;;;9.83;72.09;101088.38;5026268;28;20148;-60
2022/04/25 02:33:18;;;;;;;18.88;7.70;;;;;;;9.80;72.18;101089.31;5027161;28;20092;-61
2022/04/25 02:35:44;;;;;;;17.63;7.05;;;;;;;9.83;72.11;101091.88;5026603;28;20117;-61
2022/04/25 02:38:10;;;;;;;10.68;7.35;;;;;;;9.77;72.17;101084.16;5028687;28;20025;-61
2022/04/25 02:40:35;;;;;;;18.00;7.60;;;;;;;9.69;72.73;101091.38;5027801;28;20423;-61
2022/04/25 02:43:01;;;;;;;17.13;6.75;;;;;;;9.66;72.85;101091.47;5028022;28;20025;-61
2022/04/25 02:45:26;;;;;;;20.73;7.72;;;;;;;9.72;72.40;101092.16;5026782;28;20025;-60
2022/04/25 02:47:51;;;;;;;14.68;7.50;;;;;;;9.70;72.24;101085.22;5027351;28;20113;-61
2022/04/25 02:50:17;;;;;;;13.95;6.68;;;;;;;9.64;72.53;101085.38;5028786;28;20072;-62
2022/04/25 02:52:42;;;;;;;21.23;7.65;;;;;;;9.64;72.74;101082.75;5027558;28;20048;-61
2022/04/25 02:55:09;;;;;;;15.88;6.95;;;;;;;9.55;72.84;101078.59;5028170;28;20272;-60
2022/04/25 02:57:34;;;;;;;12.05;7.38;;;;;;;9.52;72.59;101089.19;5026711;28;20076;-62
2022/04/25 03:00:00;;;;;;;20.25;7.30;;;;;;;9.50;72.56;101089.22;5027482;28;20065;-61
2022/04/25 03:02:25;;;;;;;18.50;6.90;;;;;;;9.58;72.33;101096.91;5024923;28;20468;-61
2022/04/25 03:04:50;;;;;;;15.93;6.97;;;;;;;9.62;72.16;101090.66;5027896;28;20132;-56
2022/04/25 03:07:15;;;;;;;15.35;6.95;;;;;;;9.65;72.18;101095.84;5026938;28;20025;-61
2022/04/25 03:09:41;;;;;;;16.90;7.28;;;;;;;9.60;72.50;101090.72;5027796;28;20071;-62
2022/04/25 03:12:07;;;;;;;17.02;7.35;;;;;;;9.59;72.43;101088.13;5027130;28;20029;-60
2022/04/25 03:14:34;;;;;;;15.52;7.53;;;;;;;9.54;72.81;101093.50;5023852;28;20128;-61
2022/04/25 03:17:00;;;;;;;12.18;7.25;;;;;;;9.63;72.37;101092.38;5027605;28;20027;-61
2022/04/25 03:19:25;;;;;;;14.00;6.78;;;;;;;9.64;72.18;101094.13;5026267;28;20043;-61
2022/04/25 03:21:50;;;;;;;22.17;7.65;;;;;;;9.60;72.54;101093.34;5028200;28;20031;-62
2022/04/25 03:24:15;;;;;;;19.95;8.05;;;;;;;9.51;73.07;101087.47;5027214;28;20415;-61
2022/04/25 03:26:41;;;;;;;15.18;7.38;;;;;;;9.41;73.32;101084.19;5026744;28;20398;-61
2022/04/25 03:29:06;;;;;;;18.15;6.50;;;;;;;9.34;73.75;101089.59;5025706;28;20053;-62
2022/04/25 03:31:32;;;;;;;10.88;6.72;;;;;;;9.31;73.79;101092.31;5025014;28;20424;-61
2022/04/25 03:33:57;;;;;;;10.82;5.65;;;;;;;9.16;73.43;101080.41;5026534;28;20531;-61
2022/04/25 03:36:22;;;;;;;8.02;5.57;;;;;;;9.30;72.53;101084.47;5025461;28;20048;-61
2022/04/25 03:38:48;;;;;;;7.28;4.32;;;;;;;9.29;71.95;101090.59;5027342;28;20026;-62
2022/04/25 03:41:13;;;;;;;7.20;4.57;;;;;;;9.28;71.53;101094.16;5025950;28;20021;-61
2022/04/25 03:43:38;;;;;;;6.25;4.18;;;;;;;9.23;71.55;101089.00;5024410;28;20496;-60
2022/04/25 03:46:04;;;;;;;4.78;3.90;;;;;;;9.04;73.31;101088.56;5025726;28;20030;-61
2022/04/25 03:48:30;;;;;;;9.13;3.72;;;;;;;8.88;74.66;101093.34;5026677;28;20476;-61
2022/04/25 03:50:56;;;;;;;5.28;4.05;;;;;;;8.87;75.56;101092.47;5025068;28;20033;-61
2022/04/25 03:53:21;;;;;;;5.72;4.35;;;;;;;8.91;76.52;101088.84;5026867;28;20022;-62
2022/04/25 03:58:31;;;;;;;9.20;4.95;;;;;;;8.94;77.60;101083.53;5006777;28;20057;-60
2022/04/25 04:00:56;;;;;;;9.73;4.63;;;;;;;8.88;77.80;101093.34;5005955;28;20026;-62
2022/04/25 04:03:22;;;;;;;6.18;5.22;;;;;;;8.89;77.96;101085.41;5025300;28;20536;-61
2022/04/25 04:05:48;;;;;;;7.47;5.07;;;;;;;8.95;77.80;101082.66;5026073;28;20089;-62
2022/04/25 04:08:14;;;;;;;8.73;5.50;;;;;;;9.00;77.69;101079.88;5024868;28;20052;-61
2022/04/25 04:10:40;;;;;;;10.80;6.07;;;;;;;9.04;78.07;101093.84;5024169;28;20026;-60
2022/04/25 04:13:05;;;;;;;6.20;5.35;;;;;;;8.89;78.14;101085.41;5025804;28;20059;-61
2022/04/25 04:15:31;;;;;;;10.30;6.22;;;;;;;8.95;78.81;101098.41;5024793;28;20598;-60
2022/04/25 04:17:56;;;;;;;9.07;6.78;;;;;;;9.10;78.51;101094.53;5024777;28;20032;-60
2022/04/25 04:20:22;;;;;;;7.35;6.03;;;;;;;9.17;77.93;101102.28;5024456;28;20025;-62
2022/04/25 04:22:47;;;;;;;11.85;6.38;;;;;;;9.18;78.14;101102.25;5025195;28;20056;-61
2022/04/25 04:25:13;;;;;;;17.27;8.45;;;;;;;9.30;77.84;101102.88;5025691;28;20029;-60
2022/04/25 04:27:39;;;;;;;18.85;8.63;;;;;;;9.35;77.74;101103.63;5024915;28;20060;-61
2022/04/25 04:30:09;;;;;;;16.52;9.38;;;;;;;9.33;77.84;101108.06;5025335;28;20435;-60
2022/04/25 04:32:35;;;;;;;16.42;8.88;;;;;;;9.51;77.38;101111.13;5024863;28;20043;-61
2022/04/25 04:35:02;;;;;;;10.38;7.50;;;;;;;9.59;76.68;101110.03;5026271;28;20108;-61
2022/04/25 04:37:33;;;;;;;10.02;7.40;;;;;;;9.68;76.45;101114.19;5025713;28;20358;-61
2022/04/25 04:42:42;;;;;;;12.57;8.15;;;;;;;9.67;76.31;101114.22;5026267;28;20060;-59
2022/04/25 04:45:08;;;;;;;10.05;7.60;;;;;;;9.71;76.21;101123.78;5025573;28;20477;-59
2022/04/25 04:47:35;;;;;;;9.68;7.35;;;;;;;9.63;76.31;101123.13;5024227;28;20087;-61
2022/04/25 04:50:00;;;;;;;10.25;7.18;;;;;;;9.63;76.46;101117.84;5026874;28;20025;-60
2022/04/25 04:52:26;;;;;;;13.30;7.65;;;;;;;9.74;76.62;101131.59;5025658;28;20068;-59
2022/04/25 04:54:51;;;;;;;11.43;7.65;;;;;;;9.85;76.38;101129.53;5025552;28;20056;-60
2022/04/25 04:57:16;;;;;;;9.23;7.07;;;;;;;9.83;76.73;101134.00;5026318;28;20383;-61
2022/04/25 04:59:41;;;;;;;10.98;6.43;;;;;;;9.85;76.06;101144.47;5024990;28;20029;-61
2022/04/25 05:02:08;;;;;;;11.38;7.28;;;;;;;9.92;75.49;101142.53;5025705;28;20061;-62
2022/04/25 05:04:34;;;;;;;11.77;7.28;;;;;;;9.79;75.64;101144.63;5024761;28;20097;-59
2022/04/25 05:06:59;;;;;;;11.65;7.75;;;;;;;9.75;76.00;101149.09;5024603;28;20548;-61
2022/04/25 05:09:25;;;;;;;11.15;7.38;;;;;;;9.77;76.25;101141.16;5025457;28;20033;-61
2022/04/25 05:11:50;;;;;;;15.20;7.88;;;;;;;9.82;76.83;101150.66;5024652;28;20075;-61
2022/04/25 05:14:15;;;;;;;11.18;7.88;;;;;;;9.97;75.88;101154.66;5024682;28;20041;-60
2022/04/25 05:16:40;;;;;;;11.55;8.35;;;;;;;9.97;76.47;101153.81;5024320;28;20037;-62
2022/04/25 05:19:06;;;;;;;11.40;7.82;;;;;;;10.07;76.49;101165.84;5025394;28;20017;-60
2022/04/25 05:21:31;;;;;;;15.07;8.60;;;;;;;9.88;76.62;101154.94;5023943;28;20036;-61
2022/04/25 05:23:57;;;;;;;16.92;9.05;;;;;;;10.00;76.53;101159.00;5022892;28;20045;-61
2022/04/25 05:26:23;;;;;;;14.63;8.75;;;;;;;9.86;77.38;101168.13;5013661;28;20030;-59
2022/04/25 05:28:48;;;;;;;22.83;9.48;;;;;;;9.95;77.63;101160.88;5019158;28;20025;-59
2022/04/25 05:31:14;;;;;;;18.50;9.88;;;;;;;10.02;77.84;101165.09;5021618;28;20083;-60
2022/04/25 05:33:39;;;;;;;15.40;9.02;;;;;;;10.11;77.25;101167.47;5020302;28;20125;-59
2022/04/25 05:36:05;;;;;;;14.07;10.52;;;;;;;10.02;76.84;101172.97;5017429;28;20017;-59
2022/04/25 05:38:30;;;;;;;25.33;10.73;;;;;;;9.97;77.03;101172.25;5019823;28;20022;-60
2022/04/25 05:40:56;;;;;;;28.23;11.65;;;;;;;10.05;77.01;101169.44;5018964;28;20072;-63
2022/04/25 05:43:23;;;;;;;21.65;11.45;;;;;;;9.96;77.23;101171.38;5024466;28;20650;-60
2022/04/25 05:45:49;;;;;;;22.05;11.93;;;;;;;10.06;77.15;101181.69;5028660;28;20444;-62
2022/04/25 05:53:42;;;;;;;20.15;11.32;;;;;;;10.07;77.30;101186.03;5024148;28;20044;-62
2022/04/25 05:56:07;;;;;;;23.45;12.32;;;;;;;9.92;77.18;101184.66;5019770;28;20101;-62
2022/04/25 05:58:33;;;;;;;30.40;13.07;;;;;;;9.90;76.99;101194.38;5022297;28;20551;-58
2022/04/25 06:00:59;;;;;;;22.20;12.68;;;;;;;9.96;76.88;101192.44;5016732;28;20024;-58
2022/04/25 06:03:24;;;;;;;36.83;16.05;;;;;;;9.99;76.83;101196.75;5019800;28;20029;-60
2022/04/25 06:05:53;;;;;;;46.60;15.50;;;;;;;10.04;76.46;101196.63;5019971;28;20256;-62
2022/04/25 06:08:18;;;;;;;25.73;12.90;;;;;;;10.06;76.61;101198.31;5024187;28;20029;-62
2022/04/25 06:10:43;;;;;;;39.47;14.07;;;;;;;10.09;76.91;101207.94;5023815;28;20328;-67
2022/04/25 06:13:08;;;;;;;37.58;15.20;;;;;;;9.99;77.28;101207.28;5020948;28;20760;-57
2022/04/25 06:15:34;;;;;;;23.33;13.75;;;;;;;9.98;77.23;101218.72;5027042;28;20021;-62
2022/04/25 06:17:59;;;;;;;22.63;11.93;;;;;;;9.89;76.84;101211.06;5025891;28;20021;-61
2022/04/25 06:20:25;;;;;;;19.27;12.13;;;;;;;9.80;77.47;101213.03;5026287;28;20365;-64
2022/04/25 06:22:54;;;;;;;19.63;12.18;;;;;;;9.84;77.39;101214.66;5028413;28;20044;-63
2022/04/25 06:25:20;;;;;;;21.27;12.55;;;;;;;9.96;76.82;101210.00;5028319;28;20053;-62
2022/04/25 06:27:46;;;;;;;22.25;12.38;;;;;;;10.15;76.85;101218.31;5026742;28;20025;-63
2022/04/25 06:30:11;;;;;;;19.27;12.82;;;;;;;10.07;77.39;101215.88;5026616;28;20026;-60
2022/04/25 06:32:37;;;;;;;18.15;11.98;;;;;;;10.10;77.15;101218.41;5026696;28;20095;-60
2022/04/25 06:35:03;;;;;;;17.55;12.07;;;;;;;10.19;77.19;101216.44;5019247;28;20093;-61
2022/04/25 06:37:28;;;;;;;21.65;12.45;;;;;;;10.23;77.01;101218.06;5020770;28;20071;-58
2022/04/25 06:39:53;;;;;;;21.67;12.93;;;;;;;10.26;77.15;101222.44;5027287;28;20026;-60
2022/04/25 06:42:18;;;;;;;19.63;13.25;;;;;;;10.11;77.22;101216.63;5026818;28;20478;-61
2022/04/25 06:44:44;;;;;;;19.35;12.70;;;;;;;9.88;77.96;101219.84;5026953;28;20047;-60
2022/04/25 06:47:09;;;;;;;19.48;13.45;;;;;;;9.75;78.85;101228.03;5026014;28;20346;-61
2022/04/25 06:49:35;;;;;;;19.73;13.93;;;;;;;9.72;79.15;101228.13;5027210;28;20060;-61
2022/04/25 06:52:00;;;;;;;24.27;14.52;;;;;;;9.72;79.56;101234.25;5025573;28;20022;-61
2022/04/25 06:54:27;;;;;;;22.58;13.95;;;;;;;9.96;79.01;101236.31;5027739;28;20026;-61
2022/04/25 06:56:53;;;;;;;24.17;14.23;;;;;;;9.88;79.69;101241.78;5026850;28;20183;-60
2022/04/25 06:59:20;;;;;;;27.23;14.23;;;;;;;9.72;79.64;101241.28;5026736;28;20021;-62
2022/04/25 07:01:46;;;;;;;20.08;14.05;;;;;;;9.61;79.85;101245.03;5027001;28;20463;-60
2022/04/25 07:04:11;;;;;;;20.02;14.38;;;;;;;9.56;79.81;101244.28;5013513;28;20378;-60
2022/04/25 07:06:37;;;;;;;22.50;14.88;;;;;;;9.49;80.60;101253.22;5005019;28;20083;-61
2022/04/25 07:09:03;;;;;;;23.48;14.07;;;;;;;9.42;80.52;101251.63;5004599;28;20535;-62
2022/04/25 07:11:28;;;;;;;25.92;15.80;;;;;;;9.40;81.09;101246.41;5013962;28;20025;-61
2022/04/25 07:13:55;;;;;;;25.38;15.70;;;;;;;9.33;81.74;101258.81;5005105;28;20470;-61
2022/04/25 07:16:20;;;;;;;23.30;14.75;;;;;;;9.40;81.36;101249.03;5024570;28;20021;-61
2022/04/25 07:18:45;;;;;;;26.00;15.25;;;;;;;9.44;80.70;101260.34;5008270;28;20894;-64
2022/04/25 07:29:23;;;;;;;23.15;15.15;;;;;;;9.52;80.35;101253.16;5004488;28;20095;-72
2022/04/25 07:31:50;;;;;;;25.02;15.45;;;;;;;9.55;80.13;101260.97;5005479;28;20026;-70
2022/04/25 07:34:17;;;;;;;21.73;14.52;;;;;;;9.58;80.27;101263.50;5006012;28;20116;-70
2022/04/25 07:36:43;;;;;;;29.65;16.88;;;;;;;9.48;80.44;101269.88;5005480;28;20491;-71
2022/04/25 07:39:08;;;;;;;24.00;15.80;;;;;;;9.66;79.91;101262.50;5005346;28;20061;-70
2022/04/25 07:41:33;;;;;;;27.90;15.82;;;;;;;9.83;79.78;101262.09;5004818;28;20041;-69
2022/04/25 07:43:58;;;;;;;21.60;14.43;;;;;;;9.83;79.30;101264.72;5003377;28;20022;-71
2022/04/25 07:46:25;;;;;;;23.63;14.77;;;;;;;9.84;78.93;101264.69;5006399;28;20156;-69
2022/04/25 07:48:51;;;;;;;21.42;14.55;;;;;;;9.82;79.04;101265.63;5005604;28;20719;-67
2022/04/25 07:51:17;;;;;;;24.30;14.75;;;;;;;9.74;79.16;101271.06;5003376;28;20087;-70
2022/04/25 07:53:42;;;;;;;22.85;15.25;;;;;;;9.65;79.85;101268.63;5005506;28;20033;-68
2022/04/25 07:56:08;;;;;;;24.67;15.10;;;;;;;9.70;79.55;101270.25;5005310;28;20025;-67
2022/04/25 07:58:34;;;;;;;22.25;15.25;;;;;;;9.82;79.12;101277.00;5005065;28;20091;-68
2022/04/25 08:00:59;;;;;;;20.58;13.52;;;;;;;10.00;78.76;101280.13;5017521;28;20025;-67
2022/04/25 08:03:25;;;;;;;25.65;15.35;;;;;;;9.98;78.40;101274.88;5025777;28;20062;-70
2022/04/25 08:05:50;;;;;;;23.77;14.60;;;;;;;10.00;78.68;101282.75;5018523;28;20045;-68
2022/04/25 08:08:15;;;;;;;19.98;14.70;;;;;;;10.20;78.19;101281.38;5005825;28;20460;-68
2022/04/25 08:10:41;;;;;;;22.95;14.57;;;;;;;10.38;78.09;101279.19;5004508;28;20030;-67
2022/04/25 08:18:34;;;;;;;21.13;14.52;;;;;;;10.58;77.94;101290.09;4966126;28;20117;-68
2022/04/25 08:21:00;;;;;;;23.25;14.52;;;;;;;10.52;77.79;101292.88;4990161;28;20532;-68
2022/04/25 08:23:26;;;;;;;22.17;14.23;;;;;;;10.35;77.81;101295.91;5005720;28;20033;-67
2022/04/25 08:25:52;;;;;;;28.95;14.85;;;;;;;10.22;78.27;101300.63;5004518;28;20061;-67
2022/04/25 08:28:19;;;;;;;25.65;14.82;;;;;;;10.20;78.18;101294.53;5002100;28;20520;-68
2022/04/25 08:30:45;;;;;;;22.92;13.02;;;;;;;10.38;77.04;101301.09;5002758;28;20369;-68
2022/04/25 08:33:11;;;;;;;20.35;12.93;;;;;;;10.28;76.24;101292.59;4993957;28;20281;-68
2022/04/25 08:35:36;;;;;;;22.30;12.73;;;;;;;10.10;76.50;101305.31;4995852;28;20018;-66
2022/04/25 08:38:01;;;;;;;17.95;12.68;;;;;;;9.88;77.51;101301.47;5004217;28;20026;-66
2022/04/25 08:40:27;;;;;;;17.77;11.77;;;;;;;9.95;76.56;101300.41;4992308;28;20092;-66
2022/04/25 08:42:53;;;;;;;19.88;12.43;;;;;;;10.26;76.08;101302.28;4987043;28;20033;-67
2022/04/25 08:45:20;;;;;;;25.92;12.63;;;;;;;10.16;76.45;101299.03;5006073;28;20104;-72
2022/04/25 08:47:47;;;;;;;18.58;12.35;;;;;;;10.23;76.20;101302.34;5000213;28;20019;-71
2022/04/25 08:50:16;;;;;;;23.75;13.25;;;;;;;10.55;76.33;101292.81;4992501;28;20022;-67
2022/04/25 08:52:41;;;;;;;17.83;12.38;;;;;;;10.70;75.93;101295.94;4987176;28;20133;-69
2022/04/25 08:55:07;;;;;;;25.55;11.85;;;;;;;10.84;74.93;101299.03;4991759;28;20130;-67
2022/04/25 08:57:35;;;;;;;18.67;12.35;;;;;;;11.13;75.50;101296.50;4994328;28;20443;-69
2022/04/25 09:00:04;;;;;;;21.20;11.98;;;;;;;11.07;75.38;101299.31;4995201;28;20073;-68
2022/04/25 09:02:30;;;;;;;16.05;11.25;;;;;;;10.89;74.56;101305.97;4996084;28;20018;-68
2022/04/25 09:04:55;;;;;;;19.40;12.18;;;;;;;11.03;74.35;101313.50;5002507;28;20508;-69
2022/04/25 09:07:21;;;;;;;21.35;11.98;;;;;;;11.17;73.88;101313.09;5005473;28;20029;-69
2022/04/25 09:09:46;;;;;;;20.98;11.90;;;;;;;11.43;75.08;101312.34;5009242;28;20060;-67
2022/04/25 09:12:15;;;;;;;22.40;12.38;;;;;;;11.75;72.53;101318.38;5008952;28;20045;-69
2022/04/25 09:14:42;;;;;;;19.50;11.55;;;;;;;11.70;71.48;101319.44;5019231;28;20112;-67
2022/04/25 09:17:08;;;;;;;19.95;12.10;;;;;;;11.28;73.06;101316.28;5027942;28;20020;-68
2022/04/25 09:19:34;;;;;;;16.67;11.25;;;;;;;11.63;72.34;101318.78;5027487;28;20026;-68
2022/04/25 09:21:59;;;;;;;17.83;10.93;;;;;;;11.47;72.94;101331.59;5029283;28;20025;-68
2022/04/25 09:24:30;;;;;;;21.45;11.15;;;;;;;11.35;73.19;101335.47;5017685;28;20443;-69
2022/04/25 09:27:07;;;;;;;18.30;11.75;;;;;;;11.29;73.51;101335.63;5024028;28;20455;-66
2022/04/25 09:29:32;;;;;;;17.20;10.90;;;;;;;11.41;72.90;101339.69;5025786;28;20377;-68
2022/04/25 09:31:58;;;;;;;18.30;12.18;;;;;;;11.11;73.87;101345.81;5028926;28;20068;-64
2022/04/25 09:37:08;;;;;;;19.73;11.52;;;;;;;11.21;73.03;101359.59;5029103;28;20045;-68
2022/04/25 09:39:34;;;;;;;19.88;12.00;;;;;;;10.89;74.83;101358.72;5027410;28;20492;-65
2022/04/25 09:42:00;;;;;;;16.27;12.15;;;;;;;10.93;74.41;101355.09;5029083;28;20022;-70
2022/04/25 09:44:27;;;;;;;23.30;12.35;;;;;;;10.84;74.88;101362.31;5025436;28;20383;-67
2022/04/25 09:46:52;;;;;;;23.75;12.60;;;;;;;10.76;75.23;101352.88;5028754;28;20026;-66
2022/04/25 09:49:21;;;;;;;18.67;12.20;;;;;;;10.78;75.14;101359.88;5028187;28;20413;-66
2022/04/25 09:52:00;;;;;;;19.65;12.23;;;;;;;10.95;74.50;101358.53;5027980;28;20052;-66
2022/04/25 09:54:26;;;;;;;17.10;12.20;;;;;;;10.90;74.80;101360.44;5027325;28;20038;-67
2022/04/25 09:56:51;;;;;;;19.92;12.02;;;;;;;10.88;75.07;101363.09;5028584;28;20380;-68
2022/04/25 09:59:18;;;;;;;21.40;13.25;;;;;;;11.01;74.87;101360.16;5026919;28;20038;-67
2022/04/25 10:01:45;;;;;;;20.65;12.85;;;;;;;11.02;74.52;101365.38;5027393;28;20032;-67
2022/04/25 10:04:33;;;;;;;19.42;13.13;;;;;;;11.01;74.59;101363.63;5026825;28;20601;-68
2022/04/25 10:07:04;;;;;;;18.07;12.23;;;;;;;10.99;74.56;101368.09;5028476;28;20048;-69
2022/04/25 10:09:31;;;;;;;18.50;11.20;;;;;;;11.10;73.84;101363.38;5026895;28;20491;-68
2022/04/25 10:12:02;;;;;;;20.65;11.77;;;;;;;11.24;73.23;101362.13;5028924;28;20022;-68
2022/04/25 10:14:28;;;;;;;19.30;12.20;;;;;;;11.49;72.83;101364.06;5016404;28;20401;-66
2022/04/25 10:16:57;;;;;;;17.42;11.77;;;;;;;11.53;73.18;101363.06;5012855;28;20041;-68
2022/04/25 10:19:26;;;;;;;16.40;10.88;;;;;;;11.78;70.86;101370.25;5026822;28;20021;-64
2022/04/25 10:21:53;;;;;;;14.88;11.27;;;;;;;11.66;72.08;101375.88;5028054;28;20044;-62
2022/04/25 10:24:19;;;;;;;15.98;10.73;;;;;;;11.53;71.79;101370.97;5019954;28;20556;-63
2022/04/25 10:26:46;;;;;;;18.42;11.85;;;;;;;11.79;71.39;101377.25;5027529;28;20108;-62
2022/04/25 10:29:15;;;;;;;19.75;11.48;;;;;;;11.49;71.47;101374.63;5025258;28;20025;-64
2022/04/25 10:31:42;;;;;;;15.15;10.48;;;;;;;11.55;70.25;101382.34;5026125;28;20273;-67
2022/04/25 10:34:09;;;;;;;18.77;11.55;;;;;;;11.55;70.72;101377.06;5025877;28;20033;-66
2022/04/25 10:36:37;;;;;;;16.92;11.55;;;;;;;11.55;71.67;101374.44;5027404;28;20052;-68
2022/04/25 10:39:22;;;;;;;19.52;11.43;;;;;;;11.52;71.58;101378.94;5027188;28;20041;-65
2022/04/25 10:44:38;;;;;;;20.60;12.15;;;;;;;11.45;72.34;101386.16;5021795;28;20553;-64
2022/04/25 10:47:03;;;;;;;17.63;11.93;;;;;;;11.12;72.86;101393.22;5027010;28;20042;-66
2022/04/25 10:49:46;;;;;;;17.73;11.40;;;;;;;11.10;73.61;101405.59;5026958;28;20064;-66
2022/04/25 10:52:51;;;;;;;22.10;11.13;;;;;;;11.29;72.80;101401.59;5027280;28;20044;-63
2022/04/25 10:55:36;;;;;;;18.58;11.60;;;;;;;11.21;73.31;101407.94;5024647;28;20045;-67
2022/04/25 10:58:01;;;;;;;19.80;13.82;;;;;;;11.06;74.59;101405.72;5013962;28;20078;-63
2022/04/25 11:03:27;;;;;;;21.25;13.07;;;;;;;10.75;75.08;101415.31;5018836;28;20137;-63
2022/04/25 11:05:57;;;;;;;23.10;13.70;;;;;;;10.85;74.42;101416.78;5013222;28;20452;-65
2022/04/25 11:08:23;;;;;;;23.30;13.70;;;;;;;10.65;74.96;101417.28;5009434;28;20033;-65
2022/04/25 11:10:57;;;;;;;22.60;14.77;;;;;;;10.51;76.48;101420.28;5023084;28;20376;-66
2022/04/25 11:13:25;;;;;;;25.20;14.95;;;;;;;10.78;75.87;101425.75;5016890;28;20045;-63
2022/04/25 11:15:53;;;;;;;21.45;14.00;;;;;;;10.86;76.24;101428.19;5018976;28;20033;-63
2022/04/25 11:20:58;;;;;;;25.23;13.82;;;;;;;11.03;75.82;101425.13;5026401;28;20045;-64
2022/04/25 11:23:28;;;;;;;24.52;14.18;;;;;;;11.15;75.69;101433.59;5023652;28;20033;-61
2022/04/25 11:25:55;;;;;;;27.10;14.05;;;;;;;11.38;74.23;101427.72;5026385;28;20025;-64
2022/04/25 11:28:21;;;;;;;26.35;14.65;;;;;;;11.43;74.68;101427.56;5025241;28;20111;-61
2022/04/25 11:31:15;;;;;;;21.73;14.77;;;;;;;11.84;72.76;101428.16;5025355;28;20599;-62
2022/04/25 11:33:45;;;;;;;20.65;14.02;;;;;;;11.96;73.55;101432.22;5026111;28;20060;-62
2022/04/25 11:36:11;;;;;;;23.05;14.15;;;;;;;12.28;72.61;101432.13;5022825;28;20460;-61
2022/04/25 11:41:22;;;;;;;23.15;14.20;;;;;;;13.06;68.62;101444.63;5023082;28;20494;-66
2022/04/25 11:43:47;;;;;;;21.33;12.88;;;;;;;13.29;67.73;101430.56;5023534;28;20033;-63
2022/04/25 11:46:12;;;;;;;24.10;14.05;;;;;;;13.23;66.49;101439.59;5025530;28;20026;-66
2022/04/25 11:48:38;;;;;;;21.85;14.25;;;;;;;13.05;68.60;101448.16;5025178;28;20087;-62
2022/04/25 11:51:04;;;;;;;24.45;14.63;;;;;;;13.20;68.09;101444.09;5020195;28;20030;-62
2022/04/25 11:53:31;;;;;;;20.85;13.95;;;;;;;13.03;67.01;101445.56;5009917;28;20021;-63
2022/04/25 11:55:56;;;;;;;19.52;12.40;;;;;;;13.24;66.25;101445.72;5026742;28;20483;-62
2022/04/25 11:58:29;;;;;;;22.20;13.80;;;;;;;12.85;69.16;101440.00;5056676;28;20033;-63